sensor_id;sensor_type;location;lat;lon;timestamp;P1;durP1;ratioP1;P2;durP2;ratioP2
41201;SDS011;26936;50.524;8.684;2022-07-12T00:01:33;2.70;;;1.90;;
41201;SDS011;26936;50.524;8.684;2022-07-12T00:03:58;2.95;;;1.50;;
41201;SDS011;26936;50.524;8.684;2022-07-12T00:06:23;3.10;;;1.90;;
41201;SDS011;26936;50.524;8.684;2022-07-12T00:08:49;1.70;;;1.60;;
41201;SDS011;26936;50.524;8.684;2022-07-12T00:11:14;2.00;;;1.50;;
41201;SDS011;26936;50.524;8.684;2022-07-12T00:13:39;2.60;;;1.40;;
41201;SDS011;26936;50.524;8.684;2022-07-12T00:16:04;1.83;;;1.70;;
41201;SDS011;26936;50.524;8.684;2022-07-12T00:18:30;2.20;;;1.58;;
41201;SDS011;26936;50.524;8.684;2022-07-12T00:20:55;1.73;;;1.35;;
41201;SDS011;26936;50.524;8.684;2022-07-12T00:23:21;3.10;;;1.60;;
41201;SDS011;26936;50.524;8.684;2022-07-12T00:25:46;2.03;;;1.70;;
41201;SDS011;26936;50.524;8.684;2022-07-12T00:28:11;1.77;;;1.63;;
41201;SDS011;26936;50.524;8.684;2022-07-12T00:30:37;2.55;;;1.77;;
41201;SDS011;26936;50.524;8.684;2022-07-12T00:33:02;2.03;;;1.50;;
41201;SDS011;26936;50.524;8.684;2022-07-12T00:35:27;2.63;;;1.60;;
41201;SDS011;26936;50.524;8.684;2022-07-12T00:37:53;2.65;;;1.75;;
41201;SDS011;26936;50.524;8.684;2022-07-12T00:40:18;2.43;;;1.60;;
41201;SDS011;26936;50.524;8.684;2022-07-12T00:42:43;2.15;;;1.60;;
41201;SDS011;26936;50.524;8.684;2022-07-12T00:45:08;3.97;;;1.80;;
41201;SDS011;26936;50.524;8.684;2022-07-12T00:47:35;2.03;;;1.40;;
41201;SDS011;26936;50.524;8.684;2022-07-12T00:50:09;1.63;;;1.52;;
41201;SDS011;26936;50.524;8.684;2022-07-12T00:52:36;2.00;;;1.25;;
41201;SDS011;26936;50.524;8.684;2022-07-12T00:55:03;1.60;;;1.50;;
41201;SDS011;26936;50.524;8.684;2022-07-12T00:57:32;2.13;;;1.40;;
41201;SDS011;26936;50.524;8.684;2022-07-12T00:59:58;2.22;;;1.50;;
41201;SDS011;26936;50.524;8.684;2022-07-12T01:02:24;1.92;;;1.50;;
41201;SDS011;26936;50.524;8.684;2022-07-12T01:04:50;1.88;;;1.70;;
41201;SDS011;26936;50.524;8.684;2022-07-12T01:07:16;2.80;;;1.77;;
41201;SDS011;26936;50.524;8.684;2022-07-12T01:09:41;4.53;;;1.58;;
41201;SDS011;26936;50.524;8.684;2022-07-12T01:12:07;2.42;;;1.50;;
41201;SDS011;26936;50.524;8.684;2022-07-12T01:14:33;3.08;;;1.73;;
41201;SDS011;26936;50.524;8.684;2022-07-12T01:16:59;3.03;;;1.90;;
41201;SDS011;26936;50.524;8.684;2022-07-12T01:19:24;1.90;;;1.70;;
41201;SDS011;26936;50.524;8.684;2022-07-12T01:21:50;3.33;;;1.83;;
41201;SDS011;26936;50.524;8.684;2022-07-12T01:24:20;4.18;;;1.92;;
41201;SDS011;26936;50.524;8.684;2022-07-12T01:26:46;1.85;;;1.60;;
41201;SDS011;26936;50.524;8.684;2022-07-12T01:29:12;3.20;;;1.88;;
41201;SDS011;26936;50.524;8.684;2022-07-12T01:31:39;2.38;;;1.55;;
41201;SDS011;26936;50.524;8.684;2022-07-12T01:34:05;2.17;;;1.80;;
41201;SDS011;26936;50.524;8.684;2022-07-12T01:36:32;1.52;;;1.42;;
41201;SDS011;26936;50.524;8.684;2022-07-12T01:38:57;2.50;;;1.90;;
41201;SDS011;26936;50.524;8.684;2022-07-12T01:41:23;1.90;;;1.70;;
41201;SDS011;26936;50.524;8.684;2022-07-12T01:43:49;2.72;;;1.75;;
41201;SDS011;26936;50.524;8.684;2022-07-12T01:46:15;2.67;;;1.95;;
41201;SDS011;26936;50.524;8.684;2022-07-12T01:48:40;2.15;;;1.70;;
41201;SDS011;26936;50.524;8.684;2022-07-12T01:51:06;3.97;;;1.77;;
41201;SDS011;26936;50.524;8.684;2022-07-12T01:53:31;2.75;;;1.98;;
41201;SDS011;26936;50.524;8.684;2022-07-12T01:55:56;2.20;;;1.77;;
41201;SDS011;26936;50.524;8.684;2022-07-12T01:58:22;2.50;;;2.03;;
41201;SDS011;26936;50.524;8.684;2022-07-12T02:00:48;3.22;;;1.70;;
41201;SDS011;26936;50.524;8.684;2022-07-12T02:03:17;4.65;;;2.08;;
41201;SDS011;26936;50.524;8.684;2022-07-12T02:05:45;3.40;;;2.50;;
41201;SDS011;26936;50.524;8.684;2022-07-12T02:08:11;3.47;;;1.90;;
41201;SDS011;26936;50.524;8.684;2022-07-12T02:10:37;2.88;;;2.08;;
41201;SDS011;26936;50.524;8.684;2022-07-12T02:13:03;2.95;;;1.95;;
41201;SDS011;26936;50.524;8.684;2022-07-12T02:15:28;2.38;;;1.90;;
41201;SDS011;26936;50.524;8.684;2022-07-12T02:17:54;3.13;;;2.00;;
41201;SDS011;26936;50.524;8.684;2022-07-12T02:20:19;3.60;;;2.13;;
41201;SDS011;26936;50.524;8.684;2022-07-12T02:22:44;2.58;;;1.80;;
41201;SDS011;26936;50.524;8.684;2022-07-12T02:25:10;2.47;;;2.25;;
41201;SDS011;26936;50.524;8.684;2022-07-12T02:27:35;3.00;;;1.80;;
41201;SDS011;26936;50.524;8.684;2022-07-12T02:30:00;2.92;;;2.03;;
41201;SDS011;26936;50.524;8.684;2022-07-12T02:32:26;3.40;;;2.00;;
41201;SDS011;26936;50.524;8.684;2022-07-12T02:34:52;2.28;;;2.00;;
41201;SDS011;26936;50.524;8.684;2022-07-12T02:37:17;2.43;;;2.10;;
41201;SDS011;26936;50.524;8.684;2022-07-12T02:39:42;3.65;;;2.20;;
41201;SDS011;26936;50.524;8.684;2022-07-12T02:42:08;4.32;;;2.30;;
41201;SDS011;26936;50.524;8.684;2022-07-12T02:44:33;3.03;;;2.43;;
41201;SDS011;26936;50.524;8.684;2022-07-12T02:46:59;4.07;;;2.17;;
41201;SDS011;26936;50.524;8.684;2022-07-12T02:49:25;3.20;;;1.88;;
41201;SDS011;26936;50.524;8.684;2022-07-12T02:51:50;4.90;;;2.40;;
41201;SDS011;26936;50.524;8.684;2022-07-12T02:54:15;2.60;;;2.00;;
41201;SDS011;26936;50.524;8.684;2022-07-12T02:56:40;3.17;;;2.30;;
41201;SDS011;26936;50.524;8.684;2022-07-12T02:59:06;2.93;;;2.30;;
41201;SDS011;26936;50.524;8.684;2022-07-12T03:01:31;2.67;;;2.30;;
41201;SDS011;26936;50.524;8.684;2022-07-12T03:03:56;2.60;;;2.07;;
41201;SDS011;26936;50.524;8.684;2022-07-12T03:06:22;3.30;;;2.30;;
41201;SDS011;26936;50.524;8.684;2022-07-12T03:08:47;2.95;;;2.22;;
41201;SDS011;26936;50.524;8.684;2022-07-12T03:11:12;3.00;;;2.20;;
41201;SDS011;26936;50.524;8.684;2022-07-12T03:13:37;2.47;;;2.17;;
41201;SDS011;26936;50.524;8.684;2022-07-12T03:16:03;3.17;;;2.30;;
41201;SDS011;26936;50.524;8.684;2022-07-12T03:18:29;2.78;;;2.25;;
41201;SDS011;26936;50.524;8.684;2022-07-12T03:20:55;2.90;;;2.25;;
41201;SDS011;26936;50.524;8.684;2022-07-12T03:23:21;2.42;;;2.22;;
41201;SDS011;26936;50.524;8.684;2022-07-12T03:25:46;2.55;;;2.28;;
41201;SDS011;26936;50.524;8.684;2022-07-12T03:28:11;3.83;;;2.20;;
41201;SDS011;26936;50.524;8.684;2022-07-12T03:30:36;2.50;;;2.10;;
41201;SDS011;26936;50.524;8.684;2022-07-12T03:33:02;2.87;;;2.03;;
41201;SDS011;26936;50.524;8.684;2022-07-12T03:35:27;3.13;;;2.50;;
41201;SDS011;26936;50.524;8.684;2022-07-12T03:37:53;4.33;;;2.20;;
41201;SDS011;26936;50.524;8.684;2022-07-12T03:40:19;3.45;;;1.80;;
41201;SDS011;26936;50.524;8.684;2022-07-12T03:42:46;3.42;;;2.20;;
41201;SDS011;26936;50.524;8.684;2022-07-12T03:45:12;2.35;;;2.15;;
41201;SDS011;26936;50.524;8.684;2022-07-12T03:47:38;3.80;;;2.20;;
41201;SDS011;26936;50.524;8.684;2022-07-12T03:50:05;3.45;;;2.28;;
41201;SDS011;26936;50.524;8.684;2022-07-12T03:52:32;3.45;;;2.45;;
41201;SDS011;26936;50.524;8.684;2022-07-12T03:54:58;3.53;;;2.22;;
41201;SDS011;26936;50.524;8.684;2022-07-12T03:57:24;5.60;;;2.53;;
41201;SDS011;26936;50.524;8.684;2022-07-12T03:59:51;6.35;;;2.40;;
41201;SDS011;26936;50.524;8.684;2022-07-12T04:02:16;5.75;;;2.58;;
41201;SDS011;26936;50.524;8.684;2022-07-12T04:04:42;3.53;;;2.17;;
41201;SDS011;26936;50.524;8.684;2022-07-12T04:07:07;2.70;;;2.30;;
41201;SDS011;26936;50.524;8.684;2022-07-12T04:09:33;3.15;;;2.30;;
41201;SDS011;26936;50.524;8.684;2022-07-12T04:11:58;3.25;;;2.10;;
41201;SDS011;26936;50.524;8.684;2022-07-12T04:14:23;2.92;;;2.17;;
41201;SDS011;26936;50.524;8.684;2022-07-12T04:16:49;3.13;;;2.10;;
41201;SDS011;26936;50.524;8.684;2022-07-12T04:19:14;4.47;;;2.90;;
41201;SDS011;26936;50.524;8.684;2022-07-12T04:21:39;3.83;;;2.43;;
41201;SDS011;26936;50.524;8.684;2022-07-12T04:24:05;3.25;;;2.30;;
41201;SDS011;26936;50.524;8.684;2022-07-12T04:26:30;4.22;;;2.53;;
41201;SDS011;26936;50.524;8.684;2022-07-12T04:28:56;4.28;;;2.75;;
41201;SDS011;26936;50.524;8.684;2022-07-12T04:31:22;5.38;;;3.13;;
41201;SDS011;26936;50.524;8.684;2022-07-12T04:33:47;5.55;;;3.28;;
41201;SDS011;26936;50.524;8.684;2022-07-12T04:36:13;4.70;;;3.30;;
41201;SDS011;26936;50.524;8.684;2022-07-12T04:38:38;5.43;;;3.50;;
41201;SDS011;26936;50.524;8.684;2022-07-12T04:41:03;3.73;;;2.90;;
41201;SDS011;26936;50.524;8.684;2022-07-12T04:43:29;4.03;;;2.75;;
41201;SDS011;26936;50.524;8.684;2022-07-12T04:45:55;4.20;;;2.80;;
41201;SDS011;26936;50.524;8.684;2022-07-12T04:48:20;10.85;;;3.20;;
41201;SDS011;26936;50.524;8.684;2022-07-12T04:50:45;3.97;;;3.03;;
41201;SDS011;26936;50.524;8.684;2022-07-12T04:53:11;5.40;;;3.87;;
41201;SDS011;26936;50.524;8.684;2022-07-12T04:55:36;4.80;;;3.05;;
41201;SDS011;26936;50.524;8.684;2022-07-12T04:58:02;4.47;;;3.50;;
41201;SDS011;26936;50.524;8.684;2022-07-12T05:00:27;4.53;;;3.05;;
41201;SDS011;26936;50.524;8.684;2022-07-12T05:02:53;4.25;;;3.38;;
41201;SDS011;26936;50.524;8.684;2022-07-12T05:05:18;6.47;;;3.40;;
41201;SDS011;26936;50.524;8.684;2022-07-12T05:07:44;5.20;;;3.22;;
41201;SDS011;26936;50.524;8.684;2022-07-12T05:10:09;5.00;;;3.20;;
41201;SDS011;26936;50.524;8.684;2022-07-12T05:12:35;5.28;;;3.45;;
41201;SDS011;26936;50.524;8.684;2022-07-12T05:15:00;5.25;;;3.58;;
41201;SDS011;26936;50.524;8.684;2022-07-12T05:17:26;4.15;;;3.22;;
41201;SDS011;26936;50.524;8.684;2022-07-12T05:19:51;4.43;;;3.40;;
41201;SDS011;26936;50.524;8.684;2022-07-12T05:22:16;5.03;;;3.23;;
41201;SDS011;26936;50.524;8.684;2022-07-12T05:24:42;4.45;;;3.47;;
41201;SDS011;26936;50.524;8.684;2022-07-12T05:27:07;3.88;;;3.13;;
41201;SDS011;26936;50.524;8.684;2022-07-12T05:29:32;4.40;;;3.13;;
41201;SDS011;26936;50.524;8.684;2022-07-12T05:31:58;4.60;;;3.22;;
41201;SDS011;26936;50.524;8.684;2022-07-12T05:34:23;3.75;;;3.03;;
41201;SDS011;26936;50.524;8.684;2022-07-12T05:36:48;3.60;;;2.83;;
41201;SDS011;26936;50.524;8.684;2022-07-12T05:39:14;4.85;;;2.88;;
41201;SDS011;26936;50.524;8.684;2022-07-12T05:41:39;3.73;;;2.90;;
41201;SDS011;26936;50.524;8.684;2022-07-12T05:44:04;6.67;;;3.27;;
41201;SDS011;26936;50.524;8.684;2022-07-12T05:46:30;4.72;;;2.80;;
41201;SDS011;26936;50.524;8.684;2022-07-12T05:48:55;4.57;;;2.97;;
41201;SDS011;26936;50.524;8.684;2022-07-12T05:51:20;3.53;;;2.97;;
41201;SDS011;26936;50.524;8.684;2022-07-12T05:54:04;2.80;;;2.50;;
41201;SDS011;26936;50.524;8.684;2022-07-12T05:56:29;4.70;;;2.40;;
41201;SDS011;26936;50.524;8.684;2022-07-12T05:58:55;3.42;;;2.65;;
41201;SDS011;26936;50.524;8.684;2022-07-12T06:01:20;4.78;;;2.60;;
41201;SDS011;26936;50.524;8.684;2022-07-12T06:03:46;2.92;;;2.53;;
41201;SDS011;26936;50.524;8.684;2022-07-12T06:06:11;4.05;;;2.63;;
41201;SDS011;26936;50.524;8.684;2022-07-12T06:08:36;2.50;;;2.30;;
41201;SDS011;26936;50.524;8.684;2022-07-12T06:11:02;3.50;;;1.87;;
41201;SDS011;26936;50.524;8.684;2022-07-12T06:13:27;3.90;;;2.27;;
41201;SDS011;26936;50.524;8.684;2022-07-12T06:15:53;2.50;;;2.15;;
41201;SDS011;26936;50.524;8.684;2022-07-12T06:18:20;2.42;;;2.22;;
41201;SDS011;26936;50.524;8.684;2022-07-12T06:20:45;4.05;;;2.25;;
41201;SDS011;26936;50.524;8.684;2022-07-12T06:23:11;2.17;;;1.73;;
41201;SDS011;26936;50.524;8.684;2022-07-12T06:25:37;2.92;;;2.13;;
41201;SDS011;26936;50.524;8.684;2022-07-12T06:28:04;4.97;;;1.90;;
41201;SDS011;26936;50.524;8.684;2022-07-12T06:30:29;5.97;;;2.30;;
41201;SDS011;26936;50.524;8.684;2022-07-12T06:32:55;3.25;;;2.08;;
41201;SDS011;26936;50.524;8.684;2022-07-12T06:35:20;2.45;;;2.10;;
41201;SDS011;26936;50.524;8.684;2022-07-12T06:37:45;2.70;;;1.85;;
41201;SDS011;26936;50.524;8.684;2022-07-12T06:40:11;2.40;;;1.90;;
41201;SDS011;26936;50.524;8.684;2022-07-12T06:42:37;2.22;;;1.85;;
41201;SDS011;26936;50.524;8.684;2022-07-12T06:45:02;3.72;;;2.00;;
41201;SDS011;26936;50.524;8.684;2022-07-12T06:47:28;1.90;;;1.67;;
41201;SDS011;26936;50.524;8.684;2022-07-12T06:49:53;2.17;;;1.85;;
41201;SDS011;26936;50.524;8.684;2022-07-12T06:52:19;2.37;;;2.10;;
41201;SDS011;26936;50.524;8.684;2022-07-12T06:54:44;4.07;;;2.17;;
41201;SDS011;26936;50.524;8.684;2022-07-12T06:57:09;2.50;;;1.90;;
41201;SDS011;26936;50.524;8.684;2022-07-12T06:59:35;1.93;;;1.63;;
41201;SDS011;26936;50.524;8.684;2022-07-12T07:02:00;2.87;;;2.03;;
41201;SDS011;26936;50.524;8.684;2022-07-12T07:04:25;3.67;;;1.73;;
41201;SDS011;26936;50.524;8.684;2022-07-12T07:06:50;3.87;;;1.90;;
41201;SDS011;26936;50.524;8.684;2022-07-12T07:09:16;2.72;;;1.60;;
41201;SDS011;26936;50.524;8.684;2022-07-12T07:11:42;2.92;;;1.50;;
41201;SDS011;26936;50.524;8.684;2022-07-12T07:14:07;2.55;;;1.30;;
41201;SDS011;26936;50.524;8.684;2022-07-12T07:16:33;2.15;;;1.50;;
41201;SDS011;26936;50.524;8.684;2022-07-12T07:18:58;2.00;;;1.40;;
41201;SDS011;26936;50.524;8.684;2022-07-12T07:21:23;1.20;;;1.10;;
41201;SDS011;26936;50.524;8.684;2022-07-12T07:23:49;1.30;;;1.20;;
41201;SDS011;26936;50.524;8.684;2022-07-12T07:26:15;1.30;;;1.17;;
41201;SDS011;26936;50.524;8.684;2022-07-12T07:28:40;2.08;;;1.30;;
41201;SDS011;26936;50.524;8.684;2022-07-12T07:31:24;1.75;;;1.10;;
41201;SDS011;26936;50.524;8.684;2022-07-12T07:33:49;1.97;;;1.10;;
41201;SDS011;26936;50.524;8.684;2022-07-12T07:36:14;1.67;;;1.23;;
41201;SDS011;26936;50.524;8.684;2022-07-12T07:38:40;1.20;;;1.10;;
41201;SDS011;26936;50.524;8.684;2022-07-12T07:41:05;1.15;;;0.90;;
41201;SDS011;26936;50.524;8.684;2022-07-12T07:43:31;1.27;;;1.02;;
41201;SDS011;26936;50.524;8.684;2022-07-12T07:45:56;1.53;;;0.90;;
41201;SDS011;26936;50.524;8.684;2022-07-12T07:48:22;2.00;;;0.80;;
41201;SDS011;26936;50.524;8.684;2022-07-12T07:50:47;2.30;;;0.70;;
41201;SDS011;26936;50.524;8.684;2022-07-12T07:53:12;2.35;;;1.10;;
41201;SDS011;26936;50.524;8.684;2022-07-12T07:55:38;3.17;;;1.00;;
41201;SDS011;26936;50.524;8.684;2022-07-12T07:58:03;5.13;;;1.07;;
41201;SDS011;26936;50.524;8.684;2022-07-12T08:00:28;1.63;;;0.83;;
41201;SDS011;26936;50.524;8.684;2022-07-12T08:02:54;1.33;;;0.70;;
41201;SDS011;26936;50.524;8.684;2022-07-12T08:05:20;1.85;;;0.50;;
41201;SDS011;26936;50.524;8.684;2022-07-12T08:07:45;1.83;;;0.50;;
41201;SDS011;26936;50.524;8.684;2022-07-12T08:10:11;0.70;;;0.50;;
41201;SDS011;26936;50.524;8.684;2022-07-12T08:12:36;1.13;;;0.50;;
41201;SDS011;26936;50.524;8.684;2022-07-12T08:15:02;1.20;;;0.60;;
41201;SDS011;26936;50.524;8.684;2022-07-12T08:17:27;2.95;;;0.65;;
41201;SDS011;26936;50.524;8.684;2022-07-12T08:19:53;0.40;;;0.40;;
41201;SDS011;26936;50.524;8.684;2022-07-12T08:22:18;0.70;;;0.57;;
41201;SDS011;26936;50.524;8.684;2022-07-12T08:24:43;0.83;;;0.70;;
41201;SDS011;26936;50.524;8.684;2022-07-12T08:27:09;3.73;;;0.60;;
41201;SDS011;26936;50.524;8.684;2022-07-12T08:29:34;1.37;;;0.90;;
41201;SDS011;26936;50.524;8.684;2022-07-12T08:31:59;0.40;;;0.40;;
41201;SDS011;26936;50.524;8.684;2022-07-12T08:34:25;1.07;;;0.50;;
41201;SDS011;26936;50.524;8.684;2022-07-12T08:36:50;1.52;;;0.50;;
41201;SDS011;26936;50.524;8.684;2022-07-12T08:39:15;0.90;;;0.50;;
41201;SDS011;26936;50.524;8.684;2022-07-12T08:41:40;1.03;;;0.40;;
41201;SDS011;26936;50.524;8.684;2022-07-12T08:44:06;0.50;;;0.50;;
41201;SDS011;26936;50.524;8.684;2022-07-12T08:46:31;0.77;;;0.57;;
41201;SDS011;26936;50.524;8.684;2022-07-12T08:48:57;1.27;;;0.50;;
41201;SDS011;26936;50.524;8.684;2022-07-12T08:51:31;1.52;;;0.50;;
41201;SDS011;26936;50.524;8.684;2022-07-12T08:54:06;0.73;;;0.50;;
41201;SDS011;26936;50.524;8.684;2022-07-12T08:56:35;0.50;;;0.32;;
41201;SDS011;26936;50.524;8.684;2022-07-12T08:59:12;0.82;;;0.40;;
41201;SDS011;26936;50.524;8.684;2022-07-12T09:01:40;0.40;;;0.30;;
41201;SDS011;26936;50.524;8.684;2022-07-12T09:04:14;1.58;;;0.40;;
41201;SDS011;26936;50.524;8.684;2022-07-12T09:06:41;2.13;;;0.45;;
41201;SDS011;26936;50.524;8.684;2022-07-12T09:09:06;1.00;;;0.30;;
41201;SDS011;26936;50.524;8.684;2022-07-12T09:11:33;1.60;;;0.50;;
41201;SDS011;26936;50.524;8.684;2022-07-12T09:14:00;1.48;;;0.30;;
41201;SDS011;26936;50.524;8.684;2022-07-12T09:16:27;2.75;;;0.50;;
41201;SDS011;26936;50.524;8.684;2022-07-12T09:21:49;1.15;;;0.30;;
41201;SDS011;26936;50.524;8.684;2022-07-12T09:24:16;0.30;;;0.30;;
41201;SDS011;26936;50.524;8.684;2022-07-12T09:26:42;0.70;;;0.17;;
41201;SDS011;26936;50.524;8.684;2022-07-12T09:29:09;3.38;;;0.47;;
41201;SDS011;26936;50.524;8.684;2022-07-12T09:31:45;0.77;;;0.40;;
41201;SDS011;26936;50.524;8.684;2022-07-12T09:34:31;0.30;;;0.30;;
41201;SDS011;26936;50.524;8.684;2022-07-12T09:37:15;0.60;;;0.30;;
41201;SDS011;26936;50.524;8.684;2022-07-12T09:39:41;1.77;;;0.40;;
41201;SDS011;26936;50.524;8.684;2022-07-12T09:42:07;0.43;;;0.30;;
41201;SDS011;26936;50.524;8.684;2022-07-12T09:44:35;0.57;;;0.30;;
41201;SDS011;26936;50.524;8.684;2022-07-12T09:47:01;0.38;;;0.38;;
41201;SDS011;26936;50.524;8.684;2022-07-12T09:49:26;2.55;;;0.50;;
41201;SDS011;26936;50.524;8.684;2022-07-12T09:51:56;0.63;;;0.43;;
41201;SDS011;26936;50.524;8.684;2022-07-12T09:54:27;2.50;;;0.52;;
41201;SDS011;26936;50.524;8.684;2022-07-12T09:56:54;0.40;;;0.40;;
41201;SDS011;26936;50.524;8.684;2022-07-12T09:59:28;0.40;;;0.40;;
41201;SDS011;26936;50.524;8.684;2022-07-12T10:01:54;1.45;;;0.40;;
41201;SDS011;26936;50.524;8.684;2022-07-12T10:04:24;0.68;;;0.40;;
41201;SDS011;26936;50.524;8.684;2022-07-12T10:06:54;2.85;;;0.43;;
41201;SDS011;26936;50.524;8.684;2022-07-12T10:09:19;1.83;;;0.37;;
41201;SDS011;26936;50.524;8.684;2022-07-12T10:11:45;0.47;;;0.40;;
41201;SDS011;26936;50.524;8.684;2022-07-12T10:14:12;0.47;;;0.47;;
41201;SDS011;26936;50.524;8.684;2022-07-12T10:16:38;1.27;;;0.40;;
41201;SDS011;26936;50.524;8.684;2022-07-12T10:19:21;0.63;;;0.40;;
41201;SDS011;26936;50.524;8.684;2022-07-12T10:21:48;0.80;;;0.47;;
41201;SDS011;26936;50.524;8.684;2022-07-12T10:26:58;0.90;;;0.40;;
41201;SDS011;26936;50.524;8.684;2022-07-12T10:29:39;0.30;;;0.30;;
41201;SDS011;26936;50.524;8.684;2022-07-12T10:32:51;0.80;;;0.35;;
41201;SDS011;26936;50.524;8.684;2022-07-12T10:35:01;1.27;;;0.35;;
41201;SDS011;26936;50.524;8.684;2022-07-12T10:37:27;1.98;;;0.43;;
41201;SDS011;26936;50.524;8.684;2022-07-12T10:40:13;1.42;;;0.60;;
41201;SDS011;26936;50.524;8.684;2022-07-12T10:43:12;0.40;;;0.40;;
41201;SDS011;26936;50.524;8.684;2022-07-12T10:45:28;1.13;;;0.52;;
41201;SDS011;26936;50.524;8.684;2022-07-12T10:48:02;0.88;;;0.45;;
41201;SDS011;26936;50.524;8.684;2022-07-12T10:58:45;1.48;;;0.40;;
41201;SDS011;26936;50.524;8.684;2022-07-12T11:01:17;1.17;;;0.30;;
41201;SDS011;26936;50.524;8.684;2022-07-12T11:06:15;0.43;;;0.40;;
41201;SDS011;26936;50.524;8.684;2022-07-12T11:08:55;0.77;;;0.50;;
41201;SDS011;26936;50.524;8.684;2022-07-12T11:11:41;2.40;;;0.60;;
41201;SDS011;26936;50.524;8.684;2022-07-12T11:14:09;1.88;;;0.40;;
41201;SDS011;26936;50.524;8.684;2022-07-12T11:16:42;1.92;;;0.47;;
41201;SDS011;26936;50.524;8.684;2022-07-12T11:19:12;1.85;;;0.57;;
41201;SDS011;26936;50.524;8.684;2022-07-12T11:21:37;0.40;;;0.30;;
41201;SDS011;26936;50.524;8.684;2022-07-12T11:24:14;1.17;;;0.40;;
41201;SDS011;26936;50.524;8.684;2022-07-12T11:26:40;0.30;;;0.30;;
41201;SDS011;26936;50.524;8.684;2022-07-12T11:29:05;0.30;;;0.30;;
41201;SDS011;26936;50.524;8.684;2022-07-12T11:31:31;0.57;;;0.30;;
41201;SDS011;26936;50.524;8.684;2022-07-12T11:33:56;1.77;;;0.40;;
41201;SDS011;26936;50.524;8.684;2022-07-12T11:36:24;0.83;;;0.30;;
41201;SDS011;26936;50.524;8.684;2022-07-12T11:38:51;0.55;;;0.40;;
41201;SDS011;26936;50.524;8.684;2022-07-12T11:41:16;0.40;;;0.30;;
41201;SDS011;26936;50.524;8.684;2022-07-12T11:43:41;0.50;;;0.50;;
41201;SDS011;26936;50.524;8.684;2022-07-12T11:46:07;0.75;;;0.30;;
41201;SDS011;26936;50.524;8.684;2022-07-12T11:48:34;0.65;;;0.35;;
41201;SDS011;26936;50.524;8.684;2022-07-12T11:51:01;2.72;;;0.30;;
41201;SDS011;26936;50.524;8.684;2022-07-12T11:53:40;0.50;;;0.50;;
41201;SDS011;26936;50.524;8.684;2022-07-12T11:56:06;0.70;;;0.60;;
41201;SDS011;26936;50.524;8.684;2022-07-12T11:58:32;0.75;;;0.30;;
41201;SDS011;26936;50.524;8.684;2022-07-12T12:00:59;0.52;;;0.40;;
41201;SDS011;26936;50.524;8.684;2022-07-12T12:03:25;2.10;;;0.45;;
41201;SDS011;26936;50.524;8.684;2022-07-12T12:05:52;0.40;;;0.30;;
41201;SDS011;26936;50.524;8.684;2022-07-12T12:08:20;0.50;;;0.30;;
41201;SDS011;26936;50.524;8.684;2022-07-12T12:10:56;0.43;;;0.20;;
41201;SDS011;26936;50.524;8.684;2022-07-12T12:13:23;0.35;;;0.35;;
41201;SDS011;26936;50.524;8.684;2022-07-12T12:15:51;0.73;;;0.40;;
41201;SDS011;26936;50.524;8.684;2022-07-12T12:21:04;0.30;;;0.30;;
41201;SDS011;26936;50.524;8.684;2022-07-12T12:23:30;1.20;;;0.32;;
41201;SDS011;26936;50.524;8.684;2022-07-12T12:26:12;0.40;;;0.30;;
41201;SDS011;26936;50.524;8.684;2022-07-12T12:31:11;1.38;;;0.30;;
41201;SDS011;26936;50.524;8.684;2022-07-12T12:33:39;1.45;;;0.25;;
41201;SDS011;26936;50.524;8.684;2022-07-12T12:36:12;0.55;;;0.30;;
41201;SDS011;26936;50.524;8.684;2022-07-12T12:38:38;0.25;;;0.25;;
41201;SDS011;26936;50.524;8.684;2022-07-12T12:41:04;0.50;;;0.40;;
41201;SDS011;26936;50.524;8.684;2022-07-12T12:43:30;1.45;;;0.35;;
41201;SDS011;26936;50.524;8.684;2022-07-12T12:45:56;0.50;;;0.30;;
41201;SDS011;26936;50.524;8.684;2022-07-12T12:48:22;0.50;;;0.40;;
41201;SDS011;26936;50.524;8.684;2022-07-12T12:50:54;0.83;;;0.40;;
41201;SDS011;26936;50.524;8.684;2022-07-12T12:53:27;1.95;;;0.30;;
41201;SDS011;26936;50.524;8.684;2022-07-12T12:55:53;0.50;;;0.20;;
41201;SDS011;26936;50.524;8.684;2022-07-12T12:58:20;2.50;;;0.40;;
41201;SDS011;26936;50.524;8.684;2022-07-12T13:00:48;0.30;;;0.30;;
41201;SDS011;26936;50.524;8.684;2022-07-12T13:03:15;1.08;;;0.38;;
41201;SDS011;26936;50.524;8.684;2022-07-12T13:05:44;0.68;;;0.20;;
41201;SDS011;26936;50.524;8.684;2022-07-12T13:08:11;0.40;;;0.32;;
41201;SDS011;26936;50.524;8.684;2022-07-12T13:10:38;1.30;;;0.25;;
41201;SDS011;26936;50.524;8.684;2022-07-12T13:13:04;0.52;;;0.35;;
41201;SDS011;26936;50.524;8.684;2022-07-12T13:15:30;0.60;;;0.20;;
41201;SDS011;26936;50.524;8.684;2022-07-12T13:17:57;1.50;;;0.47;;
41201;SDS011;26936;50.524;8.684;2022-07-12T13:20:23;4.90;;;0.50;;
41201;SDS011;26936;50.524;8.684;2022-07-12T13:22:49;0.43;;;0.20;;
41201;SDS011;26936;50.524;8.684;2022-07-12T13:25:15;0.73;;;0.40;;
41201;SDS011;26936;50.524;8.684;2022-07-12T13:27:41;0.60;;;0.43;;
41201;SDS011;26936;50.524;8.684;2022-07-12T13:30:08;0.47;;;0.47;;
41201;SDS011;26936;50.524;8.684;2022-07-12T13:32:35;2.35;;;0.50;;
41201;SDS011;26936;50.524;8.684;2022-07-12T13:35:01;1.98;;;0.40;;
41201;SDS011;26936;50.524;8.684;2022-07-12T13:37:28;0.40;;;0.32;;
41201;SDS011;26936;50.524;8.684;2022-07-12T13:39:53;0.90;;;0.40;;
41201;SDS011;26936;50.524;8.684;2022-07-12T13:42:46;0.47;;;0.30;;
41201;SDS011;26936;50.524;8.684;2022-07-12T13:45:14;0.85;;;0.30;;
41201;SDS011;26936;50.524;8.684;2022-07-12T13:47:41;1.83;;;0.50;;
41201;SDS011;26936;50.524;8.684;2022-07-12T13:50:08;0.40;;;0.40;;
41201;SDS011;26936;50.524;8.684;2022-07-12T13:52:35;2.00;;;0.20;;
41201;SDS011;26936;50.524;8.684;2022-07-12T13:55:00;0.40;;;0.30;;
41201;SDS011;26936;50.524;8.684;2022-07-12T13:57:26;8.93;;;6.43;;
41201;SDS011;26936;50.524;8.684;2022-07-12T13:59:52;2.55;;;1.33;;
41201;SDS011;26936;50.524;8.684;2022-07-12T14:02:17;1.60;;;0.43;;
41201;SDS011;26936;50.524;8.684;2022-07-12T14:04:43;2.55;;;0.30;;
41201;SDS011;26936;50.524;8.684;2022-07-12T14:07:08;1.77;;;0.30;;
41201;SDS011;26936;50.524;8.684;2022-07-12T14:09:33;1.90;;;0.50;;
41201;SDS011;26936;50.524;8.684;2022-07-12T14:11:59;1.30;;;0.40;;
41201;SDS011;26936;50.524;8.684;2022-07-12T14:14:26;1.38;;;0.40;;
41201;SDS011;26936;50.524;8.684;2022-07-12T14:17:10;0.55;;;0.38;;
41201;SDS011;26936;50.524;8.684;2022-07-12T14:19:36;0.67;;;0.33;;
41201;SDS011;26936;50.524;8.684;2022-07-12T14:22:01;1.17;;;0.30;;
41201;SDS011;26936;50.524;8.684;2022-07-12T14:24:27;1.20;;;0.30;;
41201;SDS011;26936;50.524;8.684;2022-07-12T14:26:52;1.83;;;0.40;;
41201;SDS011;26936;50.524;8.684;2022-07-12T14:29:17;0.73;;;0.33;;
41201;SDS011;26936;50.524;8.684;2022-07-12T14:31:43;1.63;;;0.50;;
41201;SDS011;26936;50.524;8.684;2022-07-12T14:34:08;3.58;;;0.57;;
41201;SDS011;26936;50.524;8.684;2022-07-12T14:36:33;1.13;;;0.57;;
41201;SDS011;26936;50.524;8.684;2022-07-12T14:38:58;0.47;;;0.47;;
41201;SDS011;26936;50.524;8.684;2022-07-12T14:41:24;2.17;;;0.50;;
41201;SDS011;26936;50.524;8.684;2022-07-12T14:43:49;0.93;;;0.32;;
41201;SDS011;26936;50.524;8.684;2022-07-12T14:46:15;2.53;;;0.53;;
41201;SDS011;26936;50.524;8.684;2022-07-12T14:48:41;0.60;;;0.50;;
41201;SDS011;26936;50.524;8.684;2022-07-12T14:51:07;1.48;;;0.65;;
41201;SDS011;26936;50.524;8.684;2022-07-12T14:53:32;3.70;;;0.57;;
41201;SDS011;26936;50.524;8.684;2022-07-12T14:55:58;2.03;;;0.50;;
41201;SDS011;26936;50.524;8.684;2022-07-12T14:58:24;1.25;;;0.57;;
41201;SDS011;26936;50.524;8.684;2022-07-12T15:00:49;1.58;;;0.60;;
41201;SDS011;26936;50.524;8.684;2022-07-12T15:03:14;1.27;;;0.40;;
41201;SDS011;26936;50.524;8.684;2022-07-12T15:05:39;2.55;;;0.63;;
41201;SDS011;26936;50.524;8.684;2022-07-12T15:08:05;2.08;;;0.50;;